Archiv-/Tagesdaten

--Timestamp---	Temp	Chill	HIndex	Humid	Dewpt	Wind	HiWind	WindDir	Rain	Barom	        Solar	ET	UV
--------------	----	-----	------	-----	-----	----	------	-------	----	-----	        -----	--	--
20080625 00:05	20.0	20.0	20.0	85	17.4	0	3	135	0.00	1015.174	0	0.000	0
20080625 00:10	19.9	19.9	19.9	85	17.3	0	2	135	0.00	1015.039	0	0.000	0
20080625 00:15	19.9	19.9	19.9	85	17.3	0	2	135	0.00	1015.073	0	0.000	0
20080625 00:20	19.9	19.9	19.9	86	17.5	0	3	135	0.00	1015.073	0	0.000	0
20080625 00:25	19.8	19.8	19.8	85	17.2	0	2	135	0.00	1015.242	0	0.000	0
20080625 00:30	19.8	19.8	19.8	85	17.2	2	5	135	0.00	1015.344	0	0.000	0
20080625 00:35	19.7	19.7	19.7	85	17.1	0	0	135	0.00	1015.208	0	0.000	0
20080625 00:40	19.7	19.7	19.7	85	17.1	0	2	135	0.00	1015.276	0	0.000	0
20080625 00:45	19.5	19.5	19.5	85	16.9	0	2	135	0.00	1015.208	0	0.000	0
20080625 00:50	19.3	19.3	19.3	85	16.7	0	2	135	0.00	1015.208	0	0.000	0
20080625 00:55	19.3	19.3	19.3	85	16.7	0	2	135	0.00	1015.242	0	0.000	0
20080625 01:00	19.2	19.2	19.2	85	16.6	0	0	135	0.00	1015.344	0	0.020	0
20080625 01:05	19.2	19.2	19.2	85	16.6	0	2	135	0.00	1015.174	0	0.000	0
20080625 01:10	19.1	19.1	19.1	85	16.5	0	2	135	0.00	1015.242	0	0.000	0
20080625 01:15	19.0	19.0	19.0	85	16.4	0	2	135	0.00	1015.276	0	0.000	0
20080625 01:20	18.9	18.9	18.9	84	16.2	0	0	135	0.00	1015.208	0	0.000	0
20080625 01:25	18.9	18.9	18.9	84	16.1	2	3	135	0.00	1015.208	0	0.000	0
20080625 01:30	18.8	18.8	18.8	83	15.8	0	3	135	0.00	1015.107	0	0.000	0
20080625 01:35	18.7	18.7	18.7	83	15.8	2	3	135	0.00	1015.141	0	0.000	0
20080625 01:40	18.7	18.7	18.7	84	15.9	0	3	135	0.00	1015.141	0	0.000	0
20080625 01:45	18.7	18.7	18.7	85	16.1	0	5	135	0.00	1015.039	0	0.000	0
20080625 01:50	18.6	18.6	18.6	85	16.0	0	5	135	0.00	1014.971	0	0.000	0
20080625 01:55	18.6	18.6	18.6	84	15.8	0	2	135	0.00	1014.870	0	0.000	0
20080625 02:00	18.5	18.5	18.5	84	15.7	0	2	135	0.00	1014.971	0	0.020	0
20080625 02:05	18.4	18.4	18.4	84	15.7	0	3	135	0.00	1014.497	0	0.000	0
20080625 02:10	18.4	18.4	18.4	83	15.4	0	0	135	0.00	1014.599	0	0.000	0
20080625 02:15	18.3	18.3	18.3	83	15.3	0	2	135	0.00	1014.700	0	0.000	0
20080625 02:20	18.3	18.3	18.3	83	15.3	0	2	135	0.00	1014.565	0	0.000	0
20080625 02:25	18.3	18.3	18.3	83	15.3	0	3	135	0.00	1014.633	0	0.000	0
20080625 02:30	18.2	18.2	18.2	83	15.2	0	3	135	0.00	1014.633	0	0.000	0
20080625 02:35	18.1	18.1	18.1	84	15.3	0	3	157	0.00	1014.463	0	0.000	0
20080625 02:40	18.0	18.0	18.0	84	15.3	0	3	157	0.00	1014.599	0	0.000	0
20080625 02:45	17.9	17.9	17.9	84	15.2	0	3	157	0.00	1014.599	0	0.000	0
20080625 02:50	17.9	17.9	17.9	83	15.0	0	2	157	0.00	1014.429	0	0.000	0
20080625 02:55	17.8	17.8	17.8	83	14.9	0	3	157	0.00	1014.463	0	0.000	0
20080625 03:00	17.8	17.8	17.8	83	14.9	0	3	157	0.00	1014.362	0	0.020	0
20080625 03:05	17.9	17.9	17.9	83	15.0	0	2	157	0.00	1014.125	0	0.000	0
20080625 03:10	17.9	17.9	17.9	83	15.0	0	3	157	0.00	1014.023	0	0.000	0
20080625 03:15	18.0	18.0	18.0	83	15.1	0	3	157	0.00	1013.854	0	0.000	0
20080625 03:20	18.0	18.0	18.0	84	15.3	0	2	157	0.00	1013.888	0	0.000	0
20080625 03:25	18.0	18.0	18.0	84	15.3	0	0	157	0.00	1013.820	0	0.000	0
20080625 03:30	18.1	18.1	18.1	86	15.7	0	3	157	0.00	1013.820	0	0.000	0
20080625 03:35	18.1	18.1	18.1	86	15.7	0	3	157	0.00	1013.854	0	0.000	0
20080625 03:40	18.1	18.1	18.1	86	15.7	0	2	157	0.00	1013.854	0	0.000	0
20080625 03:45	18.1	18.1	18.1	87	15.9	0	3	157	0.00	1013.888	0	0.000	0
20080625 03:50	18.1	18.1	18.1	88	16.1	0	3	157	0.00	1013.888	0	0.000	0
20080625 03:55	18.1	18.1	18.1	87	15.9	2	6	157	0.00	1013.854	0	0.000	0
20080625 04:00	18.1	18.1	18.1	88	16.0	2	5	180	0.00	1013.718	0	0.020	0
20080625 04:05	18.0	18.0	18.0	87	15.8	0	2	180	0.00	1013.854	0	0.000	0
20080625 04:10	17.9	17.9	17.9	88	15.9	0	3	180	0.00	1013.888	0	0.000	0
20080625 04:15	17.8	17.8	17.8	87	15.6	2	10	180	0.00	1013.955	0	0.000	0
20080625 04:20	17.7	17.7	17.7	88	15.7	2	8	202	0.00	1013.989	0	0.000	0
20080625 04:25	17.5	17.5	17.5	87	15.3	0	2	202	0.00	1014.023	0	0.000	0
20080625 04:30	17.3	17.3	17.3	87	15.1	0	2	202	0.00	1014.159	0	0.000	0
20080625 04:35	17.2	17.2	17.2	87	15.0	0	3	202	0.00	1014.125	0	0.000	0
20080625 04:40	17.1	17.1	17.1	88	15.1	0	2	202	0.00	1014.057	0	0.000	0
20080625 04:45	17.0	17.0	17.0	87	14.8	0	3	202	0.00	1014.023	0	0.000	0
20080625 04:50	16.9	16.9	16.9	87	14.7	0	2	202	0.00	1014.057	0	0.000	0
20080625 04:55	16.8	16.8	16.8	87	14.7	0	3	202	0.00	1014.091	0	0.000	0
20080625 05:00	16.7	16.7	16.7	87	14.5	0	2	202	0.00	1014.159	0	0.000	0
20080625 05:05	16.7	16.7	16.7	87	14.5	0	0	202	0.00	1014.023	0	0.000	0
20080625 05:10	16.6	16.6	16.6	87	14.4	0	0	202	0.00	1013.922	0	0.000	0
20080625 05:15	16.5	16.5	16.5	87	14.3	0	0	202	0.00	1013.989	0	0.000	0
20080625 05:20	16.4	16.4	16.4	87	14.3	0	0	202	0.00	1014.023	0	0.000	0
20080625 05:25	16.3	16.3	16.3	88	14.3	0	0	202	0.00	1013.955	5	0.000	0
20080625 05:30	16.3	16.3	16.3	88	14.3	0	0	202	0.00	1014.091	8	0.000	0
20080625 05:35	16.3	16.3	16.3	88	14.3	0	0	202	0.00	1014.125	11	0.000	0
20080625 05:40	16.2	16.2	16.2	88	14.2	0	0	202	0.00	1014.023	12	0.000	0
20080625 05:45	16.3	16.3	16.3	87	14.1	0	2	202	0.00	1014.057	15	0.000	0
20080625 05:50	16.3	16.3	16.3	86	14.0	0	2	202	0.00	1014.091	19	0.000	0
20080625 05:55	16.4	16.4	16.4	85	13.9	0	2	202	0.00	1013.922	23	0.000	0
20080625 06:00	16.5	16.5	16.5	84	13.8	0	3	202	0.00	1013.955	29	0.000	0
20080625 06:05	16.6	16.6	16.6	84	13.8	0	3	202	0.00	1013.989	36	0.000	0
20080625 06:10	16.6	16.6	16.6	83	13.7	0	5	202	0.00	1013.989	43	0.000	0
20080625 06:15	16.7	16.7	16.7	83	13.8	0	5	202	0.00	1013.955	47	0.000	0
20080625 06:20	16.7	16.7	16.7	82	13.6	0	3	202	0.00	1013.955	47	0.000	0
20080625 06:25	16.8	16.8	16.8	82	13.7	0	3	202	0.00	1013.922	50	0.000	0
20080625 06:30	16.9	16.9	16.9	82	13.8	0	2	202	0.00	1013.989	58	0.000	0
20080625 06:35	17.1	17.1	17.1	83	14.1	0	2	202	0.00	1013.989	59	0.000	0
20080625 06:40	17.2	17.2	17.2	83	14.3	0	0	202	0.00	1014.057	57	0.000	0
20080625 06:45	17.3	17.3	17.3	83	14.4	0	0	202	0.00	1014.023	79	0.000	0
20080625 06:50	17.4	17.4	17.4	83	14.5	0	2	202	0.00	1014.159	112	0.000	0
20080625 06:55	17.6	17.6	17.6	82	14.4	0	2	202	0.00	1014.091	122	0.000	0
20080625 07:00	17.7	17.7	17.7	82	14.6	0	2	202	0.00	1013.955	135	0.040	0
20080625 07:05	17.8	17.8	17.8	82	14.7	0	2	202	0.00	1014.091	147	0.000	0
20080625 07:10	18.1	18.1	18.1	81	14.7	0	2	202	0.00	1013.989	159	0.000	0
20080625 07:15	18.3	18.3	18.3	81	15.0	0	5	202	0.00	1013.820	168	0.000	0
20080625 07:20	18.6	18.6	18.6	79	14.9	0	2	202	0.00	1013.820	178	0.000	0
20080625 07:25	18.9	18.9	18.9	79	15.2	0	0	202	0.00	1013.820	188	0.000	1
20080625 07:30	19.3	19.3	19.3	76	14.9	0	0	202	0.00	1013.718	201	0.000	1
20080625 07:35	19.6	19.6	19.6	74	14.8	0	2	202	0.00	1013.820	216	0.000	1
20080625 07:40	19.8	19.8	19.8	71	14.4	2	5	202	0.00	1013.820	230	0.000	1
20080625 07:45	19.8	19.8	19.8	72	14.6	2	6	202	0.00	1013.922	244	0.000	1
20080625 07:50	19.9	19.9	19.9	72	14.7	0	5	202	0.00	1013.888	255	0.000	1
20080625 07:55	20.1	20.1	20.1	71	14.7	0	5	202	0.00	1013.989	267	0.000	1
20080625 08:00	20.4	20.4	20.4	71	14.9	0	2	202	0.00	1013.820	279	0.100	1
20080625 08:05	20.6	20.6	20.6	69	14.7	0	3	202	0.00	1013.922	291	0.000	1
20080625 08:10	20.9	20.9	20.9	69	15.0	0	0	202	0.00	1013.955	303	0.000	1
20080625 08:15	21.6	21.6	21.6	67	15.2	0	2	202	0.00	1013.718	317	0.000	1
20080625 08:20	22.0	22.0	22.0	64	14.9	0	3	202	0.00	1013.786	329	0.000	1
20080625 08:25	22.1	22.1	22.1	64	15.0	0	2	202	0.00	1013.820	346	0.000	2
20080625 08:30	22.1	22.1	22.1	64	15.0	0	5	202	0.00	1013.820	372	0.000	2
20080625 08:35	22.2	22.2	22.2	67	15.8	0	2	202	0.00	1013.854	402	0.000	2
20080625 08:40	22.3	22.3	22.3	66	15.7	0	2	202	0.00	1013.820	304	0.000	2
20080625 08:45	22.7	22.7	22.7	65	15.8	0	2	202	0.00	1013.651	343	0.000	2
20080625 08:50	23.1	23.1	23.1	63	15.7	0	2	202	0.00	1013.651	411	0.000	2
20080625 08:55	23.3	23.3	23.3	64	16.1	2	5	202	0.00	1013.549	475	0.000	2
20080625 09:00	23.4	23.4	23.4	66	16.7	2	3	202	0.00	1013.549	508	0.180	2
20080625 09:05	23.4	23.4	23.4	66	16.7	0	2	202	0.00	1013.752	131	0.000	1
20080625 09:10	23.3	23.3	23.3	66	16.6	2	6	202	0.00	1013.718	347	0.000	2
20080625 09:15	23.3	23.3	23.3	64	16.1	0	2	202	0.00	1013.684	483	0.000	3
20080625 09:20	23.5	23.5	23.5	61	15.5	0	3	202	0.00	1013.651	485	0.000	3
20080625 09:25	23.7	23.7	23.7	61	15.7	0	5	202	0.00	1013.549	477	0.000	3
20080625 09:30	23.7	23.7	23.7	61	15.7	0	5	202	0.00	1013.515	500	0.000	3
20080625 09:35	23.9	23.9	25.1	62	16.2	0	6	202	0.00	1013.312	504	0.000	3
20080625 09:40	24.1	24.1	25.2	64	16.8	0	3	202	0.00	1013.346	513	0.000	3
20080625 09:45	24.3	24.3	25.5	59	15.7	0	5	202	0.00	1013.380	524	0.000	4
20080625 09:50	24.4	24.4	25.5	61	16.4	0	6	202	0.00	1013.278	537	0.000	4
20080625 09:55	24.4	24.4	25.6	60	16.2	2	3	202	0.00	1013.278	548	0.000	4
20080625 10:00	24.7	24.7	25.7	60	16.4	0	3	202	0.00	1013.278	556	0.240	4
20080625 10:05	25.0	25.0	26.0	59	16.4	2	5	202	0.00	1013.278	570	0.000	4
20080625 10:10	25.2	25.2	26.1	59	16.6	0	5	202	0.00	1013.143	581	0.000	4
20080625 10:15	25.4	25.4	26.3	58	16.6	2	6	202	0.00	1013.041	591	0.000	4
20080625 10:20	25.8	25.8	26.7	59	17.1	0	2	225	0.00	1012.973	611	0.000	4
20080625 10:25	26.1	26.1	27.0	60	17.7	0	2	225	0.00	1012.973	533	0.000	4
20080625 10:30	26.2	26.2	27.1	59	17.5	2	5	270	0.00	1013.007	589	0.000	4
20080625 10:35	25.9	25.9	26.8	59	17.3	2	5	270	0.00	1013.041	460	0.000	4
20080625 10:40	26.0	26.0	27.0	61	17.9	0	3	270	0.00	1012.939	641	0.000	5
20080625 10:45	26.2	26.2	27.1	59	17.5	0	3	270	0.00	1012.973	659	0.000	5
20080625 10:50	26.3	26.3	27.1	57	17.1	0	2	225	0.00	1012.973	672	0.000	6
20080625 10:55	26.7	26.7	27.4	55	16.9	0	3	225	0.00	1012.872	679	0.000	6
20080625 11:00	26.9	26.9	27.5	52	16.2	0	3	225	0.00	1012.939	693	0.300	6
20080625 11:05	26.9	26.9	27.8	57	17.7	2	6	247	0.00	1012.939	564	0.000	5
20080625 11:10	26.8	26.8	27.7	57	17.6	0	6	270	0.00	1012.973	733	0.000	6
20080625 11:15	26.8	26.8	27.7	57	17.6	0	3	270	0.00	1012.872	607	0.000	6
20080625 11:20	27.1	27.1	28.1	59	18.4	2	5	270	0.00	1012.973	710	0.000	6
20080625 11:25	27.2	27.2	28.1	56	17.7	3	6	270	0.00	1012.973	712	0.000	6
20080625 11:30	27.3	27.3	28.0	55	17.4	0	3	270	0.00	1012.939	725	0.000	6
20080625 11:35	27.5	27.5	28.6	58	18.5	2	10	270	0.00	1012.804	744	0.000	7
20080625 11:40	27.6	27.6	28.5	56	18.0	2	5	292	0.00	1012.601	745	0.000	7
20080625 11:45	27.7	27.7	28.5	55	17.8	2	3	315	0.00	1012.533	702	0.000	6
20080625 11:50	27.6	27.6	28.4	55	17.7	2	6	315	0.00	1012.635	420	0.000	5
20080625 11:55	27.6	27.6	28.7	58	18.6	2	6	292	0.00	1012.567	759	0.000	7
20080625 12:00	27.9	27.9	28.6	53	17.4	2	5	270	0.00	1012.702	772	0.340	7
20080625 12:05	28.2	28.2	28.9	53	17.7	2	5	270	0.00	1012.567	820	0.000	8
20080625 12:10	28.3	28.3	28.8	50	16.8	3	8	270	0.00	1012.533	822	0.000	7
20080625 12:15	28.3	28.3	28.9	51	17.2	3	8	292	0.00	1012.533	791	0.000	8
20080625 12:20	28.6	28.6	29.5	54	18.3	3	8	270	0.00	1012.499	788	0.000	8
20080625 12:25	28.7	28.7	29.8	55	18.7	2	8	315	0.00	1012.330	789	0.000	8
20080625 12:30	28.7	28.7	29.3	51	17.5	2	6	315	0.00	1012.398	796	0.000	8
20080625 12:35	28.8	28.8	29.7	52	18.0	0	5	315	0.00	1012.330	814	0.000	8
20080625 12:40	28.9	28.9	29.8	52	18.1	3	10	292	0.00	1012.228	822	0.000	8
20080625 12:45	28.8	28.8	29.2	48	16.7	5	14	292	0.00	1012.330	810	0.000	8
20080625 12:50	28.6	28.6	29.1	50	17.1	3	10	292	0.00	1012.364	624	0.000	6
20080625 12:55	28.7	28.7	29.3	51	17.5	3	11	292	0.00	1012.330	768	0.000	8
20080625 13:00	28.8	28.8	29.4	50	17.3	5	14	292	0.00	1012.364	780	0.420	7
20080625 13:05	28.8	28.8	29.4	50	17.4	5	13	292	0.00	1012.431	795	0.000	7
20080625 13:10	29.0	29.0	29.7	50	17.5	5	14	292	0.00	1012.398	801	0.000	8
20080625 13:15	29.1	29.1	29.5	48	16.9	5	14	292	0.00	1012.296	801	0.000	7
20080625 13:20	29.2	29.2	29.6	47	16.7	2	10	292	0.00	1012.093	803	0.000	8
20080625 13:25	29.3	29.3	29.4	44	15.8	6	14	292	0.00	1012.127	800	0.000	8
20080625 13:30	29.5	29.5	29.6	44	15.9	6	19	292	0.00	1011.924	795	0.000	8
20080625 13:35	29.6	29.6	29.8	45	16.4	5	14	270	0.00	1011.924	793	0.000	8
20080625 13:40	29.8	29.8	29.8	43	15.8	6	16	292	0.00	1011.890	792	0.000	8
20080625 13:45	29.8	29.8	29.5	40	14.8	6	14	292	0.00	1011.856	788	0.000	8
20080625 13:50	29.9	29.9	29.6	40	14.8	8	16	270	0.00	1011.890	785	0.000	8
20080625 13:55	30.2	30.2	30.0	41	15.4	6	16	270	0.00	1011.619	784	0.000	8
20080625 14:00	30.3	30.3	30.5	44	16.6	5	14	270	0.00	1011.653	779	0.460	7
20080625 14:05	30.4	30.4	30.4	42	16.0	8	16	270	0.00	1011.551	789	0.000	7
20080625 14:10	30.3	30.3	30.4	43	16.3	8	19	292	0.00	1011.551	801	0.000	7
20080625 14:15	30.2	30.2	30.3	43	16.2	5	19	292	0.00	1011.449	780	0.000	7
20080625 14:20	30.1	30.1	30.5	45	16.8	3	8	292	0.00	1011.416	767	0.000	7
20080625 14:25	30.2	30.2	30.4	44	16.5	6	16	270	0.00	1011.382	758	0.000	7
20080625 14:30	30.0	30.0	30.1	43	16.0	6	16	292	0.00	1011.348	754	0.000	7
20080625 14:35	30.1	30.1	30.0	42	15.7	5	16	292	0.00	1011.348	745	0.000	7
20080625 14:40	30.1	30.1	30.3	44	16.4	6	14	292	0.00	1011.280	743	0.000	7
20080625 14:45	30.2	30.2	30.4	44	16.5	2	10	270	0.00	1011.212	737	0.000	7
20080625 14:50	30.3	30.3	30.7	45	17.0	5	21	292	0.00	1011.111	725	0.000	6
20080625 14:55	30.4	30.4	30.5	42	16.1	2	8	292	0.00	1011.145	723	0.000	6
20080625 15:00	30.6	30.6	30.7	42	16.2	2	10	270	0.00	1011.043	720	0.440	6
20080625 15:05	30.6	30.6	30.6	42	16.2	3	11	247	0.00	1010.874	711	0.000	6
20080625 15:10	30.6	30.6	30.7	42	16.2	5	14	270	0.00	1010.806	704	0.000	6
20080625 15:15	30.7	30.7	30.9	43	16.6	3	11	270	0.00	1010.738	701	0.000	6
20080625 15:20	30.7	30.7	31.0	43	16.7	6	16	292	0.00	1010.704	691	0.000	6
20080625 15:25	30.8	30.8	30.8	41	16.0	8	19	270	0.00	1010.603	686	0.000	6
20080625 15:30	30.8	30.8	31.1	43	16.8	8	18	292	0.00	1010.704	680	0.000	6
20080625 15:35	30.9	30.9	30.9	41	16.1	6	18	270	0.00	1010.671	669	0.000	5
20080625 15:40	30.9	30.9	30.8	40	15.7	8	18	270	0.00	1010.671	658	0.000	5
20080625 15:45	30.7	30.7	30.7	41	15.9	10	23	292	0.00	1010.671	654	0.000	5
20080625 15:50	30.4	30.4	30.3	41	15.7	13	24	292	0.00	1010.908	645	0.000	5
20080625 15:55	30.2	30.2	30.1	41	15.5	13	29	292	0.00	1010.941	635	0.000	5
20080625 16:00	30.3	30.3	30.3	42	15.9	10	19	292	0.00	1011.009	624	0.420	5
20080625 16:05	30.3	30.3	30.3	42	16.0	8	19	292	0.00	1011.179	612	0.000	4
20080625 16:10	30.5	30.5	30.4	41	15.7	10	19	270	0.00	1011.280	612	0.000	4
20080625 16:15	30.7	30.7	30.8	42	16.3	8	16	270	0.00	1011.314	619	0.000	4
20080625 16:20	30.9	30.9	31.1	42	16.5	8	14	270	0.00	1011.314	589	0.000	4
20080625 16:25	31.1	31.1	31.4	42	16.7	8	18	270	0.00	1011.348	637	0.000	4
20080625 16:30	31.1	31.1	31.1	40	15.9	8	19	270	0.00	1011.449	608	0.000	4
20080625 16:35	31.0	31.0	31.4	43	16.9	10	18	270	0.00	1011.382	562	0.000	4
20080625 16:40	30.9	30.9	31.1	42	16.5	8	18	270	0.00	1011.483	549	0.000	4
20080625 16:45	30.8	30.8	31.1	43	16.7	10	18	270	0.00	1011.653	534	0.000	3
20080625 16:50	30.8	30.8	31.1	43	16.8	8	18	270	0.00	1011.483	520	0.000	3
20080625 16:55	30.8	30.8	31.1	43	16.7	10	23	270	0.00	1011.686	509	0.000	3
20080625 17:00	30.7	30.7	31.1	44	17.0	8	18	270	0.00	1011.686	494	0.380	3
20080625 17:05	30.8	30.8	30.9	42	16.4	10	19	270	0.00	1011.653	482	0.000	3
20080625 17:10	30.6	30.6	30.7	42	16.2	8	21	270	0.00	1011.720	459	0.000	3
20080625 17:15	30.6	30.6	31.0	44	16.9	6	14	292	0.00	1011.754	448	0.000	2
20080625 17:20	30.6	30.6	31.0	44	16.9	6	14	247	0.00	1011.686	468	0.000	2
20080625 17:25	30.6	30.6	30.8	43	16.6	6	16	292	0.00	1011.754	450	0.000	2
20080625 17:30	30.6	30.6	30.9	44	16.9	8	16	270	0.00	1011.788	416	0.000	2
20080625 17:35	30.6	30.6	31.1	45	17.3	6	11	270	0.00	1011.788	400	0.000	2
20080625 17:40	30.4	30.4	30.8	45	17.1	10	19	292	0.00	1011.822	393	0.000	2
20080625 17:45	29.8	29.8	30.8	50	18.3	10	21	292	0.00	1011.788	222	0.000	2
20080625 17:50	29.3	29.3	30.4	52	18.4	3	11	270	0.00	1011.720	236	0.000	1
20080625 17:55	29.1	29.1	30.0	52	18.2	2	5	270	0.00	1011.720	309	0.000	2
20080625 18:00	28.9	28.9	30.0	54	18.6	2	6	292	0.00	1011.720	195	0.260	1
20080625 18:05	28.7	28.7	29.9	55	18.8	0	6	270	0.00	1011.551	237	0.000	1
20080625 18:10	28.6	28.6	29.4	53	18.0	2	6	292	0.00	1011.585	192	0.000	1
20080625 18:15	28.5	28.5	29.4	53	18.0	3	14	292	0.00	1011.720	196	0.000	1
20080625 18:20	28.4	28.4	29.4	55	18.5	2	5	292	0.00	1011.686	87	0.000	1
20080625 18:25	28.1	28.1	29.1	56	18.4	0	5	292	0.00	1011.720	46	0.000	0
20080625 18:30	27.6	27.6	28.5	56	18.0	0	3	292	0.00	1011.754	43	0.000	0
20080625 18:35	27.1	27.1	28.1	58	18.1	0	5	292	0.00	1011.957	46	0.000	0
20080625 18:40	26.9	26.9	27.9	59	18.2	0	2	292	0.00	1011.991	46	0.000	0
20080625 18:45	26.7	26.7	27.7	59	18.0	0	2	292	0.00	1012.296	22	0.000	0
20080625 18:50	26.6	26.6	27.5	59	17.9	3	11	292	0.00	1012.669	13	0.000	0
20080625 18:55	25.6	25.6	26.6	64	18.2	18	45	292	0.00	1013.447	11	0.000	0
20080625 19:00	23.3	23.3	23.3	68	17.0	5	19	45	0.00	1013.651	36	0.060	0
20080625 19:05	22.0	22.0	22.0	79	18.2	6	11	0	0.00	1013.346	56	0.000	0
20080625 19:10	21.6	21.6	21.6	82	18.4	2	10	45	0.00	1013.515	57	0.000	0
20080625 19:15	21.4	21.4	21.4	82	18.2	2	6	315	0.00	1013.583	53	0.000	0
20080625 19:20	21.3	21.3	21.3	82	18.1	3	8	292	0.00	1013.752	44	0.000	0
20080625 19:25	21.3	21.3	21.3	82	18.1	2	8	292	0.00	1013.888	22	0.000	0
20080625 19:30	21.2	21.2	21.2	84	18.4	3	8	292	0.20	1013.752	14	0.000	0
20080625 19:35	21.2	21.2	21.2	85	18.5	2	8	292	0.40	1013.718	12	0.000	0
20080625 19:40	21.2	21.2	21.2	86	18.7	0	3	292	0.00	1013.718	13	0.000	0
20080625 19:45	21.1	21.1	21.1	85	18.4	2	5	292	0.00	1014.260	13	0.000	0
20080625 19:50	21.1	21.1	21.1	86	18.6	3	6	292	0.00	1014.159	12	0.000	0
20080625 19:55	21.1	21.1	21.1	86	18.6	2	5	292	0.00	1014.260	12	0.000	0
20080625 20:00	21.1	21.1	21.1	86	18.6	3	6	292	0.00	1014.429	12	0.020	0
20080625 20:05	21.1	21.1	21.1	84	18.2	5	10	292	0.00	1013.820	16	0.000	0
20080625 20:10	21.1	21.1	21.1	84	18.2	5	11	292	0.00	1013.820	21	0.000	0
20080625 20:15	21.1	21.1	21.1	84	18.3	5	10	292	0.00	1014.057	28	0.000	0
20080625 20:20	21.1	21.1	21.1	85	18.5	5	8	292	0.00	1014.260	38	0.000	0
20080625 20:25	21.2	21.2	21.2	85	18.5	5	8	270	0.00	1014.497	48	0.000	0
20080625 20:30	21.2	21.2	21.2	84	18.4	2	6	270	0.00	1014.666	57	0.000	0
20080625 20:35	21.2	21.2	21.2	84	18.4	2	5	270	0.00	1014.836	62	0.000	0
20080625 20:40	21.3	21.3	21.3	83	18.3	2	6	292	0.00	1014.937	63	0.000	0
20080625 20:45	21.4	21.4	21.4	82	18.2	3	6	292	0.00	1014.937	56	0.000	0
20080625 20:50	21.4	21.4	21.4	82	18.2	0	3	292	0.00	1014.836	51	0.000	0
20080625 20:55	21.5	21.5	21.5	81	18.1	2	3	292	0.00	1014.904	47	0.000	0
20080625 21:00	21.6	21.6	21.6	81	18.1	2	5	292	0.00	1015.107	46	0.020	0
20080625 21:05	21.6	21.6	21.6	81	18.1	2	5	292	0.00	1015.073	40	0.000	0
20080625 21:10	21.5	21.5	21.5	82	18.3	0	3	292	0.00	1014.971	33	0.000	0
20080625 21:15	21.5	21.5	21.5	82	18.3	0	3	292	0.00	1014.802	26	0.000	0
20080625 21:20	21.4	21.4	21.4	83	18.4	0	3	292	0.00	1015.005	19	0.000	0
20080625 21:25	21.3	21.3	21.3	83	18.3	0	3	292	0.00	1015.208	9	0.000	0
20080625 21:30	21.2	21.2	21.2	82	18.0	0	2	292	0.00	1015.310	2	0.000	0
20080625 21:35	21.2	21.2	21.2	82	18.0	0	2	292	0.00	1015.682	0	0.000	0
20080625 21:40	21.2	21.2	21.2	82	18.0	0	3	292	0.00	1015.750	0	0.000	0
20080625 21:45	21.2	21.2	21.2	82	18.0	0	0	292	0.00	1015.818	0	0.000	0
20080625 21:50	21.2	21.2	21.2	82	18.0	0	2	292	0.00	1015.886	0	0.000	0
20080625 21:55	21.2	21.2	21.2	82	18.0	0	3	292	0.00	1016.123	0	0.000	0
20080625 22:00	21.1	21.1	21.1	81	17.7	0	3	270	0.00	1016.123	0	0.000	0
20080625 22:05	21.1	21.1	21.1	81	17.7	0	3	270	0.00	1016.190	0	0.000	0
20080625 22:10	21.1	21.1	21.1	82	17.9	2	5	270	0.00	1016.394	0	0.000	0
20080625 22:15	21.1	21.1	21.1	82	17.9	2	6	270	0.00	1016.563	0	0.000	0
20080625 22:20	20.9	20.9	20.9	83	17.9	2	6	225	0.00	1016.394	0	0.000	0
20080625 22:25	20.9	20.9	20.9	83	17.9	0	3	225	0.00	1016.292	0	0.000	0
20080625 22:30	20.8	20.8	20.8	83	17.8	0	5	225	0.00	1016.360	0	0.000	0
20080625 22:35	20.8	20.8	20.8	83	17.8	2	3	225	0.00	1016.360	0	0.000	0
20080625 22:40	20.7	20.7	20.7	83	17.7	2	6	225	0.00	1016.326	0	0.000	0
20080625 22:45	20.7	20.7	20.7	82	17.5	0	3	225	0.00	1016.394	0	0.000	0
20080625 22:50	20.7	20.7	20.7	82	17.5	0	2	225	0.00	1016.631	0	0.000	0
20080625 22:55	20.7	20.7	20.7	82	17.5	2	8	225	0.00	1016.664	0	0.000	0
20080625 23:00	20.7	20.7	20.7	82	17.5	3	8	225	0.00	1016.834	0	0.020	0
20080625 23:05	20.6	20.6	20.6	83	17.6	3	8	202	0.00	1016.969	0	0.000	0
20080625 23:10	20.6	20.6	20.6	84	17.8	0	5	225	0.00	1017.071	0	0.000	0
20080625 23:15	20.4	20.4	20.4	84	17.6	0	5	225	0.00	1017.206	0	0.000	0
20080625 23:20	20.3	20.3	20.3	85	17.7	3	10	202	0.00	1017.172	0	0.000	0
20080625 23:25	20.2	20.2	20.2	86	17.7	5	16	180	0.00	1017.240	0	0.000	0
20080625 23:30	20.1	20.1	20.1	87	17.9	6	14	202	0.00	1017.240	0	0.000	0
20080625 23:35	20.1	20.1	20.1	87	17.9	2	8	202	0.00	1017.139	0	0.000	0
20080625 23:40	20.1	20.1	20.1	87	17.9	0	2	202	0.00	1017.105	0	0.000	0
20080625 23:45	20.1	20.1	20.1	87	17.9	0	5	202	0.00	1017.240	0	0.000	0
20080625 23:50	20.1	20.1	20.1	87	17.9	2	6	202	0.00	1017.274	0	0.000	0
20080625 23:55	20.1	20.1	20.1	87	17.9	0	5	202	0.00	1017.206	0	0.000	0
20080625 24:00	20.1	20.1	20.1	86	17.7	0	2	202	0.00	1017.105	0	0.020	0



Please note the license to use and transfer of this data:
http://creativecommons.org/licenses/by-nc-sa/3.0/deed.en

Bitte beachten sie die Lizenz zur Verwertung und Weitergabe der Daten:
http://creativecommons.org/licenses/by-nc-sa/3.0/deed.de

zurück zur Übersicht der Archivdaten (Monats und Tagesdaten)

Cookies helfen bei der Bereitstellung von Inhalten. Durch die Nutzung dieser Seiten erklärst du dich damit einverstanden, dass Cookies auf deinem Rechner gespeichert werden. Weitere Information